»·PEaware :: N335AK 38S-KVUO

N335AK :: 38S-KVUO

FLIGHT INFORMATION

Flight Status: Arrived
Operator: Privately registered:
United States
More flights under this callsign
Pilot: Gabor H. (24209)
Aircraft: Unknown
(EPIC)
More flights by this aircraft type
Origin: 38S Deer Lodge-City-Co
United States
Destination: KVUO Pearson
United States
More flights between these airports :: More routes between these airports
Route: DOXIE J16 PDT V112 BTG
File this flight plan on PilotEdge
Remarks:
Altitude:
(Current/Filed)
34,000ft
Speed:
(Current/Filed)
325kts
Departed: 12-Aug-20 07:18 AM
Arrived: 12-Aug-20 09:05 AM
Distance/Time
Traveled:
414nm/1:47
Distance/Time
To Go:
Arrived

Flight Plot

Page will automatically refresh every two minutes.

Flight plan parsing failed; only flown route is shown


Map Options




Map Legend


Flown Route
Filed Route
Departure Airport
Arrival Airport
Navaid (VOR, NDB)
Fix

Horizontal Profiles

Position Reports

Time Latitude Longitude Heading Altitude Ground
Speed
12-Aug-20 06:54 46.389881 -112.764747 226 4694ft 0kts
12-Aug-20 06:55 46.389881 -112.764747 226 4694ft 0kts
12-Aug-20 06:56 46.389881 -112.764747 226 4694ft 0kts
12-Aug-20 06:57 46.389881 -112.764747 226 4694ft 0kts
12-Aug-20 06:58 46.389881 -112.764747 226 4694ft 0kts
12-Aug-20 06:59 46.389881 -112.764747 226 4694ft 0kts
12-Aug-20 07:00 46.389881 -112.764747 226 4694ft 0kts
12-Aug-20 07:01 46.389881 -112.764747 226 4694ft 0kts
12-Aug-20 07:02 46.389881 -112.764747 226 4694ft 0kts
12-Aug-20 07:07 46.389187 -112.766083 138 4694ft 0kts
12-Aug-20 07:08 46.389187 -112.766083 138 4694ft 0kts
12-Aug-20 07:09 46.389187 -112.766083 138 4694ft 0kts
12-Aug-20 07:10 46.389187 -112.766083 138 4694ft 0kts
12-Aug-20 07:11 46.389187 -112.766083 138 4694ft 0kts
12-Aug-20 07:12 46.389187 -112.766083 138 4694ft 0kts
12-Aug-20 07:13 46.389257 -112.765955 331 4694ft 7kts
12-Aug-20 07:14 46.386633 -112.764419 140 4694ft 13kts
12-Aug-20 07:15 46.383756 -112.761134 144 4694ft 12kts
12-Aug-20 07:16 46.382348 -112.759433 323 4691ft 0kts
12-Aug-20 07:17 46.383447 -112.760717 320 4694ft 68kts
12-Aug-20 07:18 46.404608 -112.800341 265 7324ft 160kts
12-Aug-20 07:19 46.388879 -112.867486 252 10434ft 194kts
12-Aug-20 07:20 46.370714 -112.947230 249 13050ft 219kts
12-Aug-20 07:21 46.351307 -113.032367 249 15699ft 229kts
12-Aug-20 07:22 46.329270 -113.128591 250 16504ft 279kts
12-Aug-20 07:23 46.304047 -113.238460 250 16499ft 294kts
12-Aug-20 07:24 46.277909 -113.351709 250 16474ft 299kts
12-Aug-20 07:25 46.251400 -113.465951 250 16426ft 300kts
12-Aug-20 07:26 46.224725 -113.580304 250 16395ft 300kts
12-Aug-20 07:27 46.200433 -113.683889 249 18811ft 235kts
12-Aug-20 07:28 46.178840 -113.775515 249 20195ft 245kts
12-Aug-20 07:29 46.156860 -113.868480 250 21645ft 243kts
12-Aug-20 07:30 46.135835 -113.957003 250 23515ft 226kts
12-Aug-20 07:31 46.116085 -114.039822 250 25382ft 212kts
12-Aug-20 07:32 46.097569 -114.117195 251 27236ft 198kts
12-Aug-20 07:33 46.080423 -114.188631 251 29082ft 180kts
12-Aug-20 07:34 46.065183 -114.251966 253 30899ft 155kts
12-Aug-20 07:35 46.052705 -114.303866 254 32434ft 131kts
12-Aug-20 07:36 46.038178 -114.363924 252 32572ft 185kts
12-Aug-20 07:37 46.019219 -114.441860 252 32630ft 223kts
12-Aug-20 07:38 45.997917 -114.529256 252 32940ft 235kts
12-Aug-20 07:39 45.976078 -114.618533 252 33405ft 237kts
12-Aug-20 07:41 45.953994 -114.708456 252 33878ft 239kts
12-Aug-20 07:42 45.931328 -114.800399 252 33984ft 251kts
12-Aug-20 07:43 45.907322 -114.897363 252 34000ft 263kts
12-Aug-20 07:44 45.882319 -114.997906 252 34011ft 268kts
12-Aug-20 07:45 45.857151 -115.098670 252 34009ft 267kts
12-Aug-20 07:46 45.838745 -115.199408 266 34011ft 261kts
12-Aug-20 07:47 45.836126 -115.302696 267 34006ft 257kts
12-Aug-20 07:48 45.833839 -115.404672 267 34005ft 255kts
12-Aug-20 07:49 45.831477 -115.506004 267 34004ft 254kts
12-Aug-20 07:50 45.829035 -115.606871 267 34003ft 253kts
12-Aug-20 07:51 45.826522 -115.707485 266 34013ft 253kts
12-Aug-20 07:52 45.823902 -115.808614 266 34012ft 254kts
12-Aug-20 07:53 45.821190 -115.909725 266 34010ft 254kts
12-Aug-20 07:54 45.818381 -116.011163 266 34009ft 254kts
12-Aug-20 07:55 45.815492 -116.112317 266 34008ft 254kts
12-Aug-20 07:56 45.812513 -116.213266 266 34007ft 254kts
12-Aug-20 07:57 45.809455 -116.314083 266 34006ft 253kts
12-Aug-20 07:58 45.806297 -116.415169 266 34005ft 253kts
12-Aug-20 07:58 45.803613 -116.498935 266 34004ft 253kts
12-Aug-20 08:00 45.799752 -116.616133 266 34003ft 252kts
12-Aug-20 08:01 45.796344 -116.716880 265 34022ft 253kts
12-Aug-20 08:01 45.793441 -116.800730 265 34035ft 253kts
12-Aug-20 08:03 45.789257 -116.918388 265 34052ft 254kts
12-Aug-20 08:03 45.786190 -117.002548 265 34054ft 253kts
12-Aug-20 08:04 45.782450 -117.103096 264 34056ft 252kts
12-Aug-20 08:05 45.778622 -117.203154 264 34057ft 251kts
12-Aug-20 08:06 45.774724 -117.303209 263 34077ft 249kts
12-Aug-20 08:07 45.770780 -117.401879 264 34080ft 248kts
12-Aug-20 08:08 45.766768 -117.500313 264 34084ft 247kts
12-Aug-20 08:09 45.762665 -117.598863 264 34085ft 247kts
12-Aug-20 08:10 45.758505 -117.696928 263 34086ft 248kts
12-Aug-20 08:11 45.754226 -117.795609 263 34074ft 249kts
12-Aug-20 08:12 45.749842 -117.894509 263 34057ft 249kts
12-Aug-20 08:13 45.745367 -117.993816 263 34036ft 250kts
12-Aug-20 08:14 45.740815 -118.092773 263 34016ft 250kts
12-Aug-20 08:15 45.736167 -118.191970 263 34016ft 249kts
12-Aug-20 08:16 45.731457 -118.290629 263 34016ft 248kts
12-Aug-20 08:17 45.726671 -118.389099 263 34016ft 248kts
12-Aug-20 08:18 45.721828 -118.487058 263 34015ft 247kts
12-Aug-20 08:19 45.716882 -118.585308 263 34013ft 247kts
12-Aug-20 08:20 45.711923 -118.682107 262 34022ft 247kts
12-Aug-20 08:21 45.706806 -118.780466 262 34021ft 248kts
12-Aug-20 08:22 45.701611 -118.878925 262 34020ft 248kts
12-Aug-20 08:23 45.690862 -118.975196 252 34020ft 244kts
12-Aug-20 08:24 45.672320 -119.068064 250 34016ft 241kts
12-Aug-20 08:25 45.653750 -119.159625 251 34005ft 239kts
12-Aug-20 08:26 45.635243 -119.250424 251 33993ft 237kts
12-Aug-20 08:27 45.616909 -119.340089 250 33989ft 233kts
12-Aug-20 08:28 45.598696 -119.428714 250 33985ft 231kts
12-Aug-20 08:29 45.580566 -119.516565 251 33985ft 230kts
12-Aug-20 08:30 45.562408 -119.604166 250 33982ft 230kts
12-Aug-20 08:31 45.544405 -119.690670 250 33969ft 231kts
12-Aug-20 08:32 45.527834 -119.786785 271 32758ft 273kts
12-Aug-20 08:33 45.542807 -119.897223 274 31496ft 293kts
12-Aug-20 08:34 45.559806 -120.013010 275 30174ft 303kts
12-Aug-20 08:35 45.577105 -120.131527 275 28822ft 308kts
12-Aug-20 08:36 45.594525 -120.251802 276 27455ft 311kts
12-Aug-20 08:37 45.611989 -120.373374 276 26071ft 314kts
12-Aug-20 08:38 45.629420 -120.495692 276 24681ft 315kts
12-Aug-20 08:39 45.646453 -120.616099 276 24047ft 298kts
12-Aug-20 08:40 45.662212 -120.728573 276 23955ft 289kts
12-Aug-20 08:41 45.678672 -120.846935 276 22479ft 312kts
12-Aug-20 08:42 45.695724 -120.970477 277 20926ft 321kts
12-Aug-20 08:43 45.712657 -121.095161 276 19222ft 318kts
12-Aug-20 08:44 45.717028 -121.220532 272 17518ft 315kts
12-Aug-20 08:45 45.720484 -121.343387 273 15946ft 296kts
12-Aug-20 08:46 45.723571 -121.458158 273 15915ft 290kts
12-Aug-20 08:47 45.726583 -121.574356 273 15914ft 293kts
12-Aug-20 08:48 45.729495 -121.690968 272 15067ft 299kts
12-Aug-20 08:49 45.732242 -121.805936 272 13163ft 280kts
12-Aug-20 08:50 45.734679 -121.911582 272 11252ft 256kts
12-Aug-20 08:51 45.736832 -122.010250 270 9987ft 227kts
12-Aug-20 08:52 45.738700 -122.099509 270 9991ft 229kts
12-Aug-20 08:53 45.747933 -122.188992 284 8700ft 229kts
12-Aug-20 08:54 45.764783 -122.281160 277 6869ft 248kts
12-Aug-20 08:55 45.774522 -122.378808 273 4862ft 243kts
12-Aug-20 08:56 45.780838 -122.472897 273 2856ft 233kts
12-Aug-20 08:57 45.783187 -122.556220 273 1483ft 166kts
12-Aug-20 08:58 45.780865 -122.611773 253 1490ft 130kts
12-Aug-20 08:59 45.756561 -122.644107 195 1501ft 129kts
12-Aug-20 09:00 45.723333 -122.655985 192 1138ft 103kts
12-Aug-20 09:01 45.693543 -122.665666 193 645ft 117kts
12-Aug-20 09:02 45.660995 -122.679025 190 779ft 121kts
12-Aug-20 09:03 45.629968 -122.684051 166 550ft 109kts
12-Aug-20 09:04 45.620312 -122.655385 97 26ft 14kts
12-Aug-20 09:05 45.620489 -122.651594 355 25ft 6kts
12-Aug-20 09:06 45.621268 -122.653901 274 26ft 12kts
12-Aug-20 09:07 45.621542 -122.655086 182 26ft 0kts
12-Aug-20 09:08 45.621542 -122.655086 182 26ft 0kts
12-Aug-20 09:09 45.621542 -122.655086 182 26ft 0kts

Navigation Log

Ident Type
Flight plan parsing failed, navigation log unavailable